Sand Creek, Michigan
Current Conditions -  °F | °C
As of 3:48 AM on Tuesday 21 Oct 2014 (Local Time) from KADG Reporting Station
Overcast Overcast  
Wind Chill: 46°   Ceiling: 3200
Heat Index: 48°   Visibility: 10mi
Dew Point: 43°   Wind: 6mph
Humidity: 82%   Direction: 360°N
Pressure: 29.91"   Gusts: NA
Location:  41.83°N, 84.1°W
Report Text: KADG 210748Z AUTO 36005KT 10SM FEW020 SCT025 OVC032 09/06 A2991 RMK AO2
Loading
Personal Weather Stations






























Interactive Weather Map
Tropical Storm Tracking
New forecast layout! Learn more

10-Day Weather Forecast

Advertisements
Track Severe Weather on mobile